Time;durP1;ratioP1;P1;durP2;ratioP2;P2;SDS_P1;SDS_P2;PMS_P1;PMS_P2;Temp;Humidity;BMP_temperature;BMP_pressure;BME280_temperature;BME280_humidity;BME280_pressure;Samples;Min_cycle;Max_cycle;Signal;HPM_P1;HPM_P2
2022/10/26 00:00:43;;;;;;;0.00;0.00;;;13.90;99.90;;;;;;5003425;28;20202;-66
2022/10/26 00:03:09;;;;;;;0.00;0.00;;;13.90;99.90;;;;;;4997555;28;20702;-65
2022/10/26 00:05:34;;;;;;;0.10;0.10;;;13.90;99.90;;;;;;4996859;28;20761;-66
2022/10/26 00:08:01;;;;;;;0.00;0.00;;;13.90;99.90;;;;;;5005246;28;20183;-66
2022/10/26 00:10:26;;;;;;;0.00;0.00;;;14.00;99.90;;;;;;5000529;28;20187;-66
2022/10/26 00:12:52;;;;;;;0.00;0.00;;;14.00;99.90;;;;;;5005070;28;20243;-66
2022/10/26 00:15:19;;;;;;;0.00;0.00;;;14.00;99.90;;;;;;4999368;28;20211;-66
2022/10/26 00:17:45;;;;;;;0.10;0.10;;;14.00;99.90;;;;;;5009858;28;20270;-66
2022/10/26 00:20:11;;;;;;;0.00;0.00;;;14.00;99.90;;;;;;5001789;28;20206;-66
2022/10/26 00:22:37;;;;;;;0.00;0.00;;;14.00;99.90;;;;;;4998795;28;20260;-66
2022/10/26 00:25:02;;;;;;;0.00;0.00;;;14.00;99.90;;;;;;5008233;28;20215;-66
2022/10/26 00:27:28;;;;;;;0.00;0.00;;;14.00;99.90;;;;;;5001476;28;20263;-66
2022/10/26 00:29:54;;;;;;;0.00;0.00;;;14.00;99.90;;;;;;4998688;28;20222;-66
2022/10/26 00:32:20;;;;;;;0.00;0.00;;;14.00;99.90;;;;;;5001680;28;20222;-65
2022/10/26 00:34:45;;;;;;;0.00;0.00;;;14.00;99.90;;;;;;5011496;28;20218;-65
2022/10/26 00:37:10;;;;;;;0.00;0.00;;;14.00;99.90;;;;;;5002775;28;20179;-65
2022/10/26 00:39:36;;;;;;;0.00;0.00;;;14.00;99.90;;;;;;4995627;28;20187;-65
2022/10/26 00:42:02;;;;;;;0.00;0.00;;;14.00;99.90;;;;;;5003160;28;20242;-66
2022/10/26 00:44:45;;;;;;;0.00;0.00;;;14.10;99.90;;;;;;5002388;28;20218;-65
2022/10/26 00:47:14;;;;;;;0.00;0.00;;;14.10;99.90;;;;;;5002637;28;20187;-65
2022/10/26 00:49:40;;;;;;;0.10;0.10;;;14.10;99.90;;;;;;5003382;28;20258;-65
2022/10/26 00:52:08;;;;;;;0.00;0.00;;;14.00;99.90;;;;;;5002732;28;20305;-65
2022/10/26 00:54:34;;;;;;;0.00;0.00;;;14.00;99.90;;;;;;5012957;28;20258;-66
2022/10/26 00:56:59;;;;;;;0.00;0.00;;;14.00;99.90;;;;;;5009640;28;20178;-65
2022/10/26 00:59:25;;;;;;;0.00;0.00;;;14.00;99.90;;;;;;5001010;28;20270;-65
2022/10/26 01:01:51;;;;;;;0.00;0.00;;;14.00;99.90;;;;;;5007329;28;20198;-65
2022/10/26 01:04:17;;;;;;;0.00;0.00;;;13.90;99.90;;;;;;5003931;28;20219;-65
2022/10/26 01:06:44;;;;;;;0.00;0.00;;;13.90;99.90;;;;;;5014785;28;20178;-66
2022/10/26 01:09:11;;;;;;;0.00;0.00;;;13.90;99.90;;;;;;5002806;28;20210;-66
2022/10/26 01:11:37;;;;;;;0.00;0.00;;;13.90;99.90;;;;;;4999643;28;20175;-65
2022/10/26 01:14:06;;;;;;;0.55;0.55;;;13.90;99.90;;;;;;5009991;28;20182;-66
2022/10/26 01:17:06;;;;;;;0.00;0.00;;;13.90;99.90;;;;;;5012797;28;20189;-65
2022/10/26 01:19:58;;;;;;;0.10;0.10;;;13.90;99.90;;;;;;4992322;28;20561;-65
2022/10/26 01:22:47;;;;;;;0.20;0.20;;;13.90;99.90;;;;;;4999122;28;20669;-65
2022/10/26 01:25:24;;;;;;;0.32;0.30;;;13.90;99.90;;;;;;5012051;28;20693;-66
2022/10/26 01:27:51;;;;;;;0.08;0.08;;;13.80;99.90;;;;;;5013548;28;20233;-66
2022/10/26 01:30:26;;;;;;;0.05;0.05;;;13.80;99.90;;;;;;5001205;28;20258;-65
2022/10/26 01:33:16;;;;;;;0.00;0.00;;;13.80;99.90;;;;;;4998557;28;20527;-66
2022/10/26 01:35:57;;;;;;;0.00;0.00;;;13.70;99.90;;;;;;5007741;28;20270;-65
2022/10/26 01:38:32;;;;;;;0.00;0.00;;;13.70;99.90;;;;;;5013256;28;20567;-65
2022/10/26 01:41:07;;;;;;;0.00;0.00;;;13.70;99.90;;;;;;5002467;28;20170;-66
2022/10/26 01:43:44;;;;;;;1.35;0.98;;;13.70;99.90;;;;;;5011611;28;20271;-66
2022/10/26 01:46:11;;;;;;;0.00;0.00;;;13.70;99.90;;;;;;4998510;28;20202;-65
2022/10/26 01:48:40;;;;;;;0.00;0.00;;;13.60;99.90;;;;;;5008799;28;20177;-65
2022/10/26 01:51:07;;;;;;;0.00;0.00;;;13.60;99.90;;;;;;4998049;28;20188;-65
2022/10/26 01:53:33;;;;;;;0.00;0.00;;;13.60;99.90;;;;;;4995374;28;20262;-65
2022/10/26 01:56:00;;;;;;;0.00;0.00;;;13.60;99.90;;;;;;5002613;28;20348;-65
2022/10/26 01:59:00;;;;;;;0.00;0.00;;;13.60;99.90;;;;;;4999872;28;20701;-65
2022/10/26 02:01:47;;;;;;;0.00;0.00;;;13.50;99.90;;;;;;5007528;28;20542;-65
2022/10/26 02:04:30;;;;;;;0.00;0.00;;;13.50;99.90;;;;;;4998427;28;20210;-65
2022/10/26 02:07:18;;;;;;;0.00;0.00;;;13.50;99.90;;;;;;5003219;28;20528;-65
2022/10/26 02:10:06;;;;;;;0.00;0.00;;;13.40;99.90;;;;;;5005188;28;20218;-65
2022/10/26 02:12:44;;;;;;;0.00;0.00;;;13.40;99.90;;;;;;5004452;28;20184;-65
2022/10/26 02:15:30;;;;;;;0.03;0.03;;;13.40;99.90;;;;;;4997482;28;20179;-65
2022/10/26 02:18:03;;;;;;;0.00;0.00;;;13.40;99.90;;;;;;4994429;28;20552;-65
2022/10/26 02:20:35;;;;;;;0.00;0.00;;;13.40;99.90;;;;;;5000481;28;20182;-65
2022/10/26 02:23:04;;;;;;;0.00;0.00;;;13.40;99.90;;;;;;4995244;28;20211;-65
2022/10/26 02:25:32;;;;;;;0.00;0.00;;;13.40;99.90;;;;;;5009086;28;20229;-65
2022/10/26 02:28:06;;;;;;;0.20;0.20;;;13.40;99.90;;;;;;4999839;28;20184;-66
2022/10/26 02:30:34;;;;;;;0.13;0.13;;;13.40;99.90;;;;;;5002601;28;20690;-65
2022/10/26 02:33:01;;;;;;;1.45;0.65;;;13.40;99.90;;;;;;4996649;28;20258;-65
2022/10/26 02:35:31;;;;;;;1.80;1.65;;;13.40;99.90;;;;;;4993145;28;20187;-65
2022/10/26 02:37:59;;;;;;;0.75;0.30;;;13.40;99.90;;;;;;5009098;28;20207;-65
2022/10/26 02:40:27;;;;;;;0.43;0.43;;;13.40;99.90;;;;;;5012249;28;20205;-65
2022/10/26 02:42:56;;;;;;;0.40;0.40;;;13.40;99.90;;;;;;5007733;28;20875;-65
2022/10/26 02:45:25;;;;;;;0.00;0.00;;;13.40;99.90;;;;;;5005684;28;20310;-65
2022/10/26 02:47:52;;;;;;;0.00;0.00;;;13.40;99.90;;;;;;5000030;28;20183;-65
2022/10/26 02:50:22;;;;;;;0.00;0.00;;;13.40;99.90;;;;;;5003719;28;20245;-66
2022/10/26 02:53:17;;;;;;;0.00;0.00;;;13.40;99.90;;;;;;5005036;28;20607;-66
2022/10/26 02:55:48;;;;;;;0.00;0.00;;;13.40;99.90;;;;;;5005187;28;20198;-66
2022/10/26 02:58:19;;;;;;;0.05;0.05;;;13.40;99.90;;;;;;4999328;28;20222;-65
2022/10/26 03:00:45;;;;;;;0.00;0.00;;;13.30;99.90;;;;;;5002217;28;20669;-65
2022/10/26 03:03:12;;;;;;;0.00;0.00;;;13.30;99.90;;;;;;5005863;28;20183;-65
2022/10/26 03:05:41;;;;;;;0.00;0.00;;;13.30;99.90;;;;;;4998287;28;20632;-65
2022/10/26 03:08:07;;;;;;;0.10;0.10;;;13.40;99.90;;;;;;5006548;28;20269;-65
2022/10/26 03:10:38;;;;;;;0.05;0.05;;;13.40;99.90;;;;;;5008717;28;20262;-65
2022/10/26 03:13:04;;;;;;;0.00;0.00;;;13.30;99.90;;;;;;5008028;28;20204;-65
2022/10/26 03:15:29;;;;;;;0.00;0.00;;;13.30;99.90;;;;;;5002611;28;20263;-65
2022/10/26 03:17:55;;;;;;;0.00;0.00;;;13.30;99.90;;;;;;5004626;28;20214;-66
2022/10/26 03:20:20;;;;;;;0.00;0.00;;;13.30;99.90;;;;;;4992456;28;20258;-66
2022/10/26 03:22:47;;;;;;;0.00;0.00;;;13.40;99.90;;;;;;4996663;28;20217;-66
2022/10/26 03:25:14;;;;;;;0.00;0.00;;;13.40;99.90;;;;;;5001926;28;20218;-66
2022/10/26 03:27:40;;;;;;;0.60;0.60;;;13.40;99.90;;;;;;5004366;28;20183;-66
2022/10/26 03:30:06;;;;;;;0.00;0.00;;;13.40;99.90;;;;;;5010487;28;20234;-66
2022/10/26 03:32:31;;;;;;;0.00;0.00;;;13.50;99.90;;;;;;5004621;28;20353;-66
2022/10/26 03:34:57;;;;;;;0.30;0.30;;;13.50;99.90;;;;;;5001276;28;20273;-66
2022/10/26 03:37:23;;;;;;;0.43;0.43;;;13.50;99.90;;;;;;5005071;28;20186;-66
2022/10/26 03:39:48;;;;;;;0.00;0.00;;;13.50;99.90;;;;;;4998006;28;20186;-66
2022/10/26 03:42:14;;;;;;;0.57;0.57;;;13.40;99.90;;;;;;5000179;28;20198;-65
2022/10/26 03:44:39;;;;;;;0.13;0.13;;;13.40;99.90;;;;;;4992007;28;20215;-65
2022/10/26 03:47:05;;;;;;;0.13;0.13;;;13.40;99.90;;;;;;4993722;28;20187;-66
2022/10/26 03:49:30;;;;;;;0.20;0.20;;;13.40;99.90;;;;;;5007143;28;20201;-66
2022/10/26 03:51:56;;;;;;;0.08;0.08;;;13.40;99.90;;;;;;5004680;28;20183;-66
2022/10/26 03:54:21;;;;;;;0.00;0.00;;;13.40;99.90;;;;;;5009784;28;20676;-66
2022/10/26 03:56:47;;;;;;;0.00;0.00;;;13.30;99.90;;;;;;5010432;28;20197;-67
2022/10/26 03:59:13;;;;;;;0.00;0.00;;;13.30;99.90;;;;;;5002859;28;20517;-66
2022/10/26 04:01:39;;;;;;;0.00;0.00;;;13.30;99.90;;;;;;5003079;28;20193;-65
2022/10/26 04:04:04;;;;;;;0.00;0.00;;;13.30;99.90;;;;;;5001944;28;20215;-67
2022/10/26 04:06:30;;;;;;;0.00;0.00;;;13.30;99.90;;;;;;5010847;28;20194;-67
2022/10/26 04:09:01;;;;;;;0.00;0.00;;;13.30;99.90;;;;;;5010336;28;20182;-67
2022/10/26 04:11:27;;;;;;;0.00;0.00;;;13.30;99.90;;;;;;5014027;28;20186;-68
2022/10/26 04:13:54;;;;;;;0.00;0.00;;;13.30;99.90;;;;;;4996625;28;20202;-69
2022/10/26 04:16:19;;;;;;;0.22;0.22;;;13.30;99.90;;;;;;5005386;28;20179;-67
2022/10/26 04:18:45;;;;;;;0.08;0.08;;;13.30;99.90;;;;;;5015747;28;20186;-69
2022/10/26 04:21:11;;;;;;;0.00;0.00;;;13.30;99.90;;;;;;5015044;28;20209;-70
2022/10/26 04:23:36;;;;;;;0.00;0.00;;;13.30;99.90;;;;;;5000286;28;20269;-68
2022/10/26 04:26:04;;;;;;;0.00;0.00;;;13.20;99.90;;;;;;5015541;28;20187;-74
2022/10/26 04:28:29;;;;;;;0.13;0.10;;;13.20;99.90;;;;;;5015635;28;20182;-73
2022/10/26 04:30:55;;;;;;;0.00;0.00;;;13.20;99.90;;;;;;5007607;28;20310;-72
2022/10/26 04:33:20;;;;;;;0.00;0.00;;;13.20;99.90;;;;;;5002561;28;20230;-69
2022/10/26 04:35:47;;;;;;;0.00;0.00;;;13.20;99.90;;;;;;5009058;28;20193;-67
2022/10/26 04:38:12;;;;;;;0.00;0.00;;;13.20;99.90;;;;;;4997890;28;20179;-67
2022/10/26 04:40:38;;;;;;;0.00;0.00;;;13.20;99.90;;;;;;5000103;28;20254;-73
2022/10/26 04:43:03;;;;;;;0.10;0.10;;;13.20;99.90;;;;;;5007120;28;20183;-66
2022/10/26 04:45:32;;;;;;;0.00;0.00;;;13.20;99.90;;;;;;4999315;28;20241;-67
2022/10/26 04:47:59;;;;;;;0.00;0.00;;;13.20;99.90;;;;;;5015441;28;20345;-67
2022/10/26 04:50:25;;;;;;;0.00;0.00;;;13.20;99.90;;;;;;5015193;28;20267;-67
2022/10/26 04:52:51;;;;;;;0.00;0.00;;;13.10;99.90;;;;;;5015394;28;20162;-67
2022/10/26 04:55:16;;;;;;;0.00;0.00;;;13.10;99.90;;;;;;5015149;28;20586;-67
2022/10/26 04:57:43;;;;;;;0.20;0.20;;;13.10;99.90;;;;;;5015123;28;20712;-67
2022/10/26 05:00:10;;;;;;;0.93;0.80;;;13.10;99.90;;;;;;5009163;28;20225;-67
2022/10/26 05:02:35;;;;;;;0.00;0.00;;;13.10;99.90;;;;;;4995599;28;20230;-67
2022/10/26 05:05:01;;;;;;;0.00;0.00;;;13.10;99.90;;;;;;4995399;28;20474;-67
2022/10/26 05:07:26;;;;;;;0.00;0.00;;;13.10;99.90;;;;;;4995570;28;20590;-67
2022/10/26 05:09:52;;;;;;;0.10;0.10;;;13.10;99.90;;;;;;4995380;28;20598;-67
2022/10/26 05:12:18;;;;;;;0.00;0.00;;;13.10;99.90;;;;;;4995326;28;20176;-67
2022/10/26 05:14:43;;;;;;;0.00;0.00;;;13.00;99.90;;;;;;4995213;28;20175;-67
2022/10/26 05:17:09;;;;;;;0.00;0.00;;;13.00;99.90;;;;;;4995354;28;20199;-67
2022/10/26 05:19:34;;;;;;;0.00;0.00;;;13.00;99.90;;;;;;4995179;28;20650;-67
2022/10/26 05:22:00;;;;;;;0.10;0.10;;;13.00;99.90;;;;;;4995188;28;20207;-67
2022/10/26 05:24:25;;;;;;;0.00;0.00;;;13.00;99.90;;;;;;4995025;28;20214;-67
2022/10/26 05:26:51;;;;;;;0.00;0.00;;;13.00;99.90;;;;;;4999825;28;20186;-67
2022/10/26 05:29:16;;;;;;;0.00;0.00;;;13.00;99.90;;;;;;5014327;28;20234;-67
2022/10/26 05:31:42;;;;;;;0.00;0.00;;;13.00;99.90;;;;;;5014333;28;20179;-67
2022/10/26 05:34:07;;;;;;;0.00;0.00;;;13.10;99.90;;;;;;5014554;28;20210;-67
2022/10/26 05:36:33;;;;;;;1.83;0.50;;;13.10;99.90;;;;;;5014438;28;20182;-67
2022/10/26 05:38:59;;;;;;;0.00;0.00;;;13.10;99.90;;;;;;5014583;28;20586;-67
2022/10/26 05:41:25;;;;;;;0.43;0.43;;;13.10;99.90;;;;;;5014362;28;20171;-67
2022/10/26 05:43:50;;;;;;;0.00;0.00;;;13.00;99.90;;;;;;5014273;28;20220;-67
2022/10/26 05:46:16;;;;;;;0.03;0.03;;;13.00;99.90;;;;;;5014251;28;20185;-67
2022/10/26 05:48:41;;;;;;;0.05;0.05;;;13.10;99.90;;;;;;5014169;28;20179;-67
2022/10/26 05:51:07;;;;;;;0.00;0.00;;;13.10;99.90;;;;;;5014190;28;20592;-67
2022/10/26 05:53:32;;;;;;;0.00;0.00;;;13.10;99.90;;;;;;5014256;28;20297;-67
2022/10/26 05:55:58;;;;;;;0.38;0.25;;;13.10;99.90;;;;;;5014147;28;20171;-67
2022/10/26 05:58:24;;;;;;;0.10;0.10;;;13.10;99.90;;;;;;5012770;28;20186;-67
2022/10/26 06:01:27;;;;;;;0.00;0.00;;;13.20;99.90;;;;;;5014035;28;20185;-67
2022/10/26 06:04:05;;;;;;;0.00;0.00;;;13.20;99.90;;;;;;5014144;28;20202;-67
2022/10/26 06:06:38;;;;;;;0.00;0.00;;;13.10;99.90;;;;;;5013886;28;20665;-67
2022/10/26 06:09:04;;;;;;;0.00;0.00;;;13.20;99.90;;;;;;5013871;28;20179;-67
2022/10/26 06:11:30;;;;;;;0.00;0.00;;;13.20;99.90;;;;;;5013869;28;20202;-67
2022/10/26 06:13:59;;;;;;;0.00;0.00;;;13.20;99.90;;;;;;5013850;28;20661;-67
2022/10/26 06:17:03;;;;;;;0.00;0.00;;;13.20;99.90;;;;;;5013681;28;20600;-67
2022/10/26 06:19:35;;;;;;;0.00;0.00;;;13.20;99.90;;;;;;5013606;28;20672;-67
2022/10/26 06:22:14;;;;;;;0.00;0.00;;;13.20;99.90;;;;;;5013703;28;20579;-67
2022/10/26 06:25:02;;;;;;;0.00;0.00;;;13.20;99.90;;;;;;5013463;28;20248;-67
2022/10/26 06:27:42;;;;;;;0.00;0.00;;;13.20;99.90;;;;;;5013447;28;20193;-66
2022/10/26 06:30:10;;;;;;;0.00;0.00;;;13.20;99.90;;;;;;5013221;28;20234;-67
2022/10/26 06:32:38;;;;;;;0.00;0.00;;;13.20;99.90;;;;;;5013365;28;20181;-67
2022/10/26 06:35:25;;;;;;;0.00;0.00;;;13.20;99.90;;;;;;5013351;28;20181;-67
2022/10/26 06:37:52;;;;;;;0.38;0.25;;;13.20;99.90;;;;;;5013346;28;20265;-67
2022/10/26 06:40:19;;;;;;;0.00;0.00;;;13.20;99.90;;;;;;5013199;28;20257;-67
2022/10/26 06:42:44;;;;;;;0.10;0.10;;;13.20;99.90;;;;;;5013140;28;20166;-67
2022/10/26 06:45:13;;;;;;;0.10;0.10;;;13.20;99.90;;;;;;5013073;28;20218;-67
2022/10/26 06:48:04;;;;;;;0.00;0.00;;;13.30;99.90;;;;;;5013117;28;20175;-67
2022/10/26 06:50:39;;;;;;;0.00;0.00;;;13.30;99.90;;;;;;5013091;28;20186;-66
2022/10/26 06:53:22;;;;;;;0.00;0.00;;;13.30;99.90;;;;;;5013129;28;20179;-66
2022/10/26 06:55:49;;;;;;;0.10;0.10;;;13.30;99.90;;;;;;5013076;28;20190;-66
2022/10/26 06:58:18;;;;;;;0.15;0.15;;;13.30;99.90;;;;;;5012871;28;20276;-67
2022/10/26 07:00:45;;;;;;;0.15;0.15;;;13.40;99.90;;;;;;5012786;28;20663;-67
2022/10/26 07:03:11;;;;;;;0.00;0.00;;;13.40;99.90;;;;;;5012798;28;20182;-67
2022/10/26 07:05:36;;;;;;;0.00;0.00;;;13.50;99.90;;;;;;5012765;28;20696;-67
2022/10/26 07:08:03;;;;;;;0.00;0.00;;;13.50;99.90;;;;;;5012897;28;20214;-67
2022/10/26 07:10:29;;;;;;;0.15;0.13;;;13.60;99.90;;;;;;5012814;28;20182;-67
2022/10/26 07:12:54;;;;;;;0.05;0.05;;;13.60;99.90;;;;;;5012909;28;20167;-67
2022/10/26 07:15:20;;;;;;;0.00;0.00;;;13.70;99.90;;;;;;5012605;28;20642;-67
2022/10/26 07:17:47;;;;;;;0.20;0.10;;;13.70;99.90;;;;;;5012961;28;20175;-67
2022/10/26 07:20:17;;;;;;;0.00;0.00;;;13.80;99.90;;;;;;5012504;28;20178;-67
2022/10/26 07:22:42;;;;;;;1.20;0.95;;;13.80;99.90;;;;;;5012612;28;20187;-67
2022/10/26 07:25:10;;;;;;;0.00;0.00;;;13.90;99.90;;;;;;5012556;28;20292;-67
2022/10/26 07:27:35;;;;;;;0.00;0.00;;;13.90;99.90;;;;;;5012517;28;20240;-67
2022/10/26 07:30:02;;;;;;;0.00;0.00;;;14.00;99.90;;;;;;5012439;28;20503;-67
2022/10/26 07:32:28;;;;;;;0.00;0.00;;;14.00;99.90;;;;;;5012426;28;20175;-67
2022/10/26 07:34:54;;;;;;;0.00;0.00;;;14.00;99.90;;;;;;5012538;28;20257;-67
2022/10/26 07:37:19;;;;;;;0.00;0.00;;;14.10;99.90;;;;;;5011638;28;20257;-67
2022/10/26 07:39:45;;;;;;;0.00;0.00;;;14.10;99.90;;;;;;5012531;28;20177;-67
2022/10/26 07:42:10;;;;;;;0.00;0.00;;;14.10;99.90;;;;;;5011168;28;20653;-67
2022/10/26 07:44:36;;;;;;;0.00;0.00;;;14.10;99.90;;;;;;5012326;28;20214;-67
2022/10/26 07:47:01;;;;;;;0.00;0.00;;;14.10;99.90;;;;;;5012410;28;20171;-67
2022/10/26 07:49:27;;;;;;;0.00;0.00;;;14.10;99.90;;;;;;5012344;28;20175;-67
2022/10/26 07:51:52;;;;;;;0.00;0.00;;;14.10;99.90;;;;;;5012242;28;20185;-67
2022/10/26 07:54:18;;;;;;;0.03;0.03;;;14.10;99.90;;;;;;5012336;28;20269;-67
2022/10/26 07:56:43;;;;;;;0.00;0.00;;;14.20;99.90;;;;;;5012195;28;20175;-67
2022/10/26 07:59:12;;;;;;;0.10;0.10;;;14.30;99.90;;;;;;5012236;28;20178;-67
2022/10/26 08:01:37;;;;;;;0.00;0.00;;;14.40;99.90;;;;;;5012143;28;20537;-67
2022/10/26 08:04:03;;;;;;;0.00;0.00;;;14.40;99.90;;;;;;5012114;28;20190;-67
2022/10/26 08:06:28;;;;;;;0.00;0.00;;;14.50;99.90;;;;;;5012218;28;20179;-67
2022/10/26 08:08:54;;;;;;;0.20;0.20;;;14.60;99.90;;;;;;5010929;28;20167;-67
2022/10/26 08:11:19;;;;;;;0.00;0.00;;;14.60;99.90;;;;;;5012050;28;20225;-67
2022/10/26 08:13:45;;;;;;;0.00;0.00;;;14.70;99.90;;;;;;5012198;28;20186;-67
2022/10/26 08:16:11;;;;;;;0.00;0.00;;;14.70;99.90;;;;;;5012074;28;20634;-67
2022/10/26 08:18:36;;;;;;;0.00;0.00;;;14.70;99.90;;;;;;5012164;28;20179;-67
2022/10/26 08:21:04;;;;;;;0.00;0.00;;;14.70;99.90;;;;;;5012023;28;20634;-67
2022/10/26 08:23:31;;;;;;;0.15;0.15;;;14.70;99.90;;;;;;5012009;28;20187;-67
2022/10/26 08:26:00;;;;;;;0.00;0.00;;;14.70;99.90;;;;;;5012261;28;20226;-67
2022/10/26 08:28:27;;;;;;;0.00;0.00;;;14.80;99.90;;;;;;5011670;28;20187;-67
2022/10/26 08:30:52;;;;;;;0.00;0.00;;;14.70;99.90;;;;;;5011844;28;20296;-67
2022/10/26 08:33:18;;;;;;;0.00;0.00;;;14.70;99.90;;;;;;5012147;28;20202;-67
2022/10/26 08:35:43;;;;;;;0.00;0.00;;;14.80;99.90;;;;;;5011880;28;20179;-67
2022/10/26 08:38:09;;;;;;;0.00;0.00;;;14.80;99.90;;;;;;5011879;28;20175;-67
2022/10/26 08:40:40;;;;;;;0.05;0.03;;;14.80;99.90;;;;;;5011816;28;20187;-67
2022/10/26 08:43:26;;;;;;;0.00;0.00;;;14.90;99.90;;;;;;5012043;28;20193;-67
2022/10/26 08:46:09;;;;;;;0.00;0.00;;;15.00;99.90;;;;;;5011916;28;20206;-67
2022/10/26 08:48:38;;;;;;;0.00;0.00;;;15.10;99.90;;;;;;5012880;28;20175;-67
2022/10/26 08:51:18;;;;;;;0.00;0.00;;;15.20;99.90;;;;;;5015465;28;20175;-67
2022/10/26 08:54:00;;;;;;;0.00;0.00;;;15.30;99.90;;;;;;5015503;28;20214;-67
2022/10/26 08:56:39;;;;;;;0.00;0.00;;;15.40;99.90;;;;;;5015268;28;20175;-67
2022/10/26 08:59:13;;;;;;;0.00;0.00;;;15.50;99.90;;;;;;5015340;28;20634;-67
2022/10/26 09:01:39;;;;;;;0.00;0.00;;;15.60;99.90;;;;;;5015104;28;20175;-67
2022/10/26 09:04:10;;;;;;;0.00;0.00;;;15.80;99.90;;;;;;5015151;28;20225;-67
2022/10/26 09:06:56;;;;;;;0.00;0.00;;;16.00;99.90;;;;;;5015079;28;20328;-67
2022/10/26 09:09:46;;;;;;;0.00;0.00;;;16.10;99.90;;;;;;5015119;28;20231;-67
2022/10/26 09:12:22;;;;;;;0.00;0.00;;;16.30;99.90;;;;;;5015073;28;20229;-67
2022/10/26 09:14:59;;;;;;;0.10;0.10;;;16.60;99.90;;;;;;5015131;28;20183;-67
2022/10/26 09:17:37;;;;;;;0.00;0.00;;;16.90;99.90;;;;;;5014969;28;20206;-67
2022/10/26 09:20:25;;;;;;;0.00;0.00;;;17.10;99.90;;;;;;5014934;28;20543;-67
2022/10/26 09:23:00;;;;;;;0.00;0.00;;;17.20;99.90;;;;;;5014947;28;20210;-67
2022/10/26 09:25:36;;;;;;;0.20;0.10;;;17.50;99.90;;;;;;5014616;28;20744;-67
2022/10/26 09:28:03;;;;;;;0.00;0.00;;;17.80;99.90;;;;;;5010300;28;20195;-67
2022/10/26 09:30:29;;;;;;;0.20;0.20;;;18.10;99.90;;;;;;4995012;28;20227;-67
2022/10/26 09:33:18;;;;;;;0.00;0.00;;;18.30;99.90;;;;;;4995089;28;20222;-67
2022/10/26 09:35:49;;;;;;;0.00;0.00;;;18.50;99.90;;;;;;4994891;28;20186;-67
2022/10/26 09:38:29;;;;;;;0.00;0.00;;;18.70;99.90;;;;;;4994914;28;20278;-67
2022/10/26 09:41:12;;;;;;;0.00;0.00;;;18.80;99.90;;;;;;4995022;28;20195;-67
2022/10/26 09:43:45;;;;;;;0.00;0.00;;;18.90;99.90;;;;;;4994984;28;20180;-67
2022/10/26 09:46:21;;;;;;;0.00;0.00;;;19.20;99.90;;;;;;4994683;28;20195;-67
2022/10/26 09:48:52;;;;;;;0.05;0.05;;;19.50;99.90;;;;;;4993440;28;20179;-67
2022/10/26 09:51:18;;;;;;;0.00;0.00;;;19.70;99.90;;;;;;4994621;28;20190;-67
2022/10/26 09:53:44;;;;;;;0.10;0.10;;;19.90;99.90;;;;;;4994721;28;20172;-67
2022/10/26 09:56:12;;;;;;;0.00;0.00;;;20.10;99.90;;;;;;4994514;28;20207;-67
2022/10/26 09:59:03;;;;;;;0.00;0.00;;;20.20;99.90;;;;;;4994608;28;20179;-67
2022/10/26 10:01:33;;;;;;;0.70;0.10;;;20.50;99.90;;;;;;5008893;28;20704;-67
2022/10/26 10:04:10;;;;;;;0.00;0.00;;;20.70;99.90;;;;;;5013970;28;20229;-67
2022/10/26 10:06:36;;;;;;;0.00;0.00;;;20.80;99.90;;;;;;5014187;28;20240;-67
2022/10/26 10:09:17;;;;;;;0.00;0.00;;;20.90;99.90;;;;;;5013966;28;20175;-67
2022/10/26 10:11:54;;;;;;;0.17;0.17;;;20.90;99.90;;;;;;5013959;28;20208;-67
2022/10/26 10:14:25;;;;;;;0.10;0.10;;;21.00;99.90;;;;;;5013851;28;20177;-67
2022/10/26 10:16:57;;;;;;;0.00;0.00;;;21.10;99.90;;;;;;5013893;28;20190;-67
2022/10/26 10:19:29;;;;;;;0.00;0.00;;;21.30;99.90;;;;;;5013784;28;20175;-67
2022/10/26 10:21:57;;;;;;;0.00;0.00;;;21.50;99.90;;;;;;5013713;28;20179;-67
2022/10/26 10:24:30;;;;;;;0.10;0.00;;;21.50;99.90;;;;;;5013518;28;20277;-67
2022/10/26 10:27:01;;;;;;;0.00;0.00;;;21.50;99.90;;;;;;5013546;28;20209;-67
2022/10/26 10:29:48;;;;;;;0.10;0.10;;;21.50;99.90;;;;;;5013292;28;20565;-67
2022/10/26 10:32:26;;;;;;;0.00;0.00;;;21.40;99.90;;;;;;5013550;28;20166;-67
2022/10/26 10:34:54;;;;;;;0.00;0.00;;;21.50;99.90;;;;;;5013583;28;20249;-67
2022/10/26 10:37:44;;;;;;;0.00;0.00;;;21.70;99.90;;;;;;5013305;28;20186;-67
2022/10/26 10:40:16;;;;;;;0.00;0.00;;;21.80;99.90;;;;;;5013420;28;20190;-67
2022/10/26 10:42:44;;;;;;;0.20;0.20;;;21.80;99.90;;;;;;5013336;28;20590;-67
2022/10/26 10:45:29;;;;;;;0.00;0.00;;;21.80;99.90;;;;;;5013143;28;20210;-67
2022/10/26 10:48:27;;;;;;;0.10;0.10;;;21.90;99.90;;;;;;5013354;28;20183;-67
2022/10/26 10:50:59;;;;;;;0.00;0.00;;;21.90;99.90;;;;;;5012853;28;20194;-67
2022/10/26 10:53:34;;;;;;;0.00;0.00;;;21.90;99.90;;;;;;5013184;28;20222;-67
2022/10/26 10:56:26;;;;;;;0.00;0.00;;;21.90;99.90;;;;;;5013073;28;20182;-67
2022/10/26 10:59:00;;;;;;;0.00;0.00;;;21.90;99.90;;;;;;5012934;28;20198;-67
2022/10/26 11:01:31;;;;;;;0.00;0.00;;;21.80;99.90;;;;;;5012813;28;20178;-67
2022/10/26 11:04:26;;;;;;;0.00;0.00;;;21.60;99.90;;;;;;5012918;28;20175;-67
2022/10/26 11:06:56;;;;;;;0.00;0.00;;;21.60;99.90;;;;;;5005663;28;20615;-67
2022/10/26 11:09:27;;;;;;;0.00;0.00;;;21.70;99.90;;;;;;5012837;28;20210;-67
2022/10/26 11:12:11;;;;;;;0.00;0.00;;;22.00;99.90;;;;;;5012781;28;20232;-67
2022/10/26 11:14:50;;;;;;;0.00;0.00;;;22.20;99.90;;;;;;5012609;28;20186;-67
2022/10/26 11:17:21;;;;;;;0.00;0.00;;;22.30;99.90;;;;;;5012782;28;20592;-67
2022/10/26 11:20:14;;;;;;;0.00;0.00;;;22.60;99.90;;;;;;5012753;28;20175;-67
2022/10/26 11:22:58;;;;;;;0.00;0.00;;;22.60;99.90;;;;;;5008366;28;20183;-67
2022/10/26 11:25:28;;;;;;;0.03;0.03;;;22.40;99.90;;;;;;5012618;28;20237;-66
2022/10/26 11:28:03;;;;;;;0.00;0.00;;;22.10;99.90;;;;;;5012550;28;20193;-67
2022/10/26 11:30:32;;;;;;;0.00;0.00;;;21.80;99.90;;;;;;5012447;28;20238;-67
2022/10/26 11:33:10;;;;;;;0.03;0.03;;;21.60;99.90;;;;;;5012506;28;20638;-67
2022/10/26 11:35:44;;;;;;;0.00;0.00;;;21.60;99.90;;;;;;5012696;28;20210;-67
2022/10/26 11:38:31;;;;;;;0.00;0.00;;;21.60;99.90;;;;;;5012439;28;20314;-67
2022/10/26 11:41:19;;;;;;;0.00;0.00;;;21.60;99.90;;;;;;5012454;28;20229;-67
2022/10/26 11:43:52;;;;;;;0.22;0.17;;;21.70;99.90;;;;;;5012507;28;20190;-67
2022/10/26 11:46:33;;;;;;;0.00;0.00;;;21.80;99.90;;;;;;5012343;28;20273;-67
2022/10/26 11:49:19;;;;;;;0.00;0.00;;;21.90;99.90;;;;;;5012622;28;20214;-67
2022/10/26 11:51:58;;;;;;;0.03;0.03;;;21.70;99.90;;;;;;5012456;28;20182;-67
2022/10/26 11:54:31;;;;;;;0.00;0.00;;;21.50;99.90;;;;;;5012284;28;20266;-67
2022/10/26 11:56:58;;;;;;;0.00;0.00;;;21.60;99.90;;;;;;5012282;28;20197;-67
2022/10/26 11:59:27;;;;;;;0.00;0.00;;;21.50;99.90;;;;;;5012137;28;20183;-67
2022/10/26 12:02:02;;;;;;;0.10;0.10;;;21.50;99.90;;;;;;4992660;28;20179;-67
2022/10/26 12:04:31;;;;;;;0.00;0.00;;;21.30;99.90;;;;;;4992691;28;20210;-67
2022/10/26 12:07:00;;;;;;;0.00;0.00;;;21.20;99.90;;;;;;4992519;28;20179;-67
2022/10/26 12:09:33;;;;;;;0.00;0.00;;;21.20;99.90;;;;;;4992465;28;20214;-68
2022/10/26 12:12:34;;;;;;;0.00;0.00;;;21.30;99.90;;;;;;4992485;28;20190;-67
2022/10/26 12:15:20;;;;;;;0.00;0.00;;;21.20;99.90;;;;;;4982762;28;20553;-67
2022/10/26 12:17:53;;;;;;;0.00;0.00;;;21.30;99.90;;;;;;4992428;28;20198;-67
2022/10/26 12:20:46;;;;;;;0.00;0.00;;;21.30;99.90;;;;;;4992375;28;20190;-67
2022/10/26 12:23:12;;;;;;;0.00;0.00;;;21.20;99.90;;;;;;4992806;28;20713;-67
2022/10/26 12:25:38;;;;;;;0.00;0.00;;;21.20;99.90;;;;;;4996229;28;20223;-67
2022/10/26 12:28:04;;;;;;;0.00;0.00;;;21.20;99.90;;;;;;5010751;28;20298;-67
2022/10/26 12:30:30;;;;;;;0.00;0.00;;;21.10;99.90;;;;;;5015578;28;20234;-67
2022/10/26 12:32:59;;;;;;;0.00;0.00;;;21.00;99.90;;;;;;5015850;28;20174;-66
2022/10/26 12:35:30;;;;;;;0.00;0.00;;;21.00;99.90;;;;;;5015648;28;20542;-67
2022/10/26 12:37:56;;;;;;;0.00;0.00;;;20.90;99.90;;;;;;5015609;28;20262;-67
2022/10/26 12:40:38;;;;;;;0.00;0.00;;;20.90;99.90;;;;;;5015514;28;20609;-67
2022/10/26 12:43:13;;;;;;;0.10;0.10;;;21.00;99.90;;;;;;5015558;28;20289;-67
2022/10/26 12:45:44;;;;;;;0.05;0.05;;;21.00;99.90;;;;;;5015320;28;20221;-67
2022/10/26 12:48:37;;;;;;;0.13;0.00;;;21.10;99.90;;;;;;5015509;28;20202;-67
2022/10/26 12:51:21;;;;;;;0.00;0.00;;;21.10;99.90;;;;;;5015472;28;20194;-67
2022/10/26 12:54:13;;;;;;;0.10;0.10;;;21.10;99.90;;;;;;5015323;28;20641;-67
2022/10/26 12:56:54;;;;;;;0.10;0.10;;;21.20;99.90;;;;;;5015289;28;20190;-67
2022/10/26 12:59:56;;;;;;;0.00;0.00;;;21.20;99.90;;;;;;5015169;28;20175;-67
2022/10/26 13:02:59;;;;;;;0.00;0.00;;;21.20;99.90;;;;;;4995597;28;20252;-67
2022/10/26 13:06:00;;;;;;;0.90;0.85;;;21.20;99.90;;;;;;4995396;28;20302;-67
2022/10/26 13:08:26;;;;;;;0.00;0.00;;;21.30;99.90;;;;;;4995538;28;20180;-67
2022/10/26 13:11:03;;;;;;;0.05;0.05;;;21.40;99.90;;;;;;4995548;28;20176;-67